sensor_id;sensor_type;location;lat;lon;timestamp;pressure;altitude;pressure_sealevel;temperature;humidity
38054;BME280;23859;50.672;7.164;2023-02-12T00:00:36;102916.72;;;6.50;100.00
38054;BME280;23859;50.672;7.164;2023-02-12T00:03:02;102907.13;;;6.47;100.00
38054;BME280;23859;50.672;7.164;2023-02-12T00:05:28;102905.41;;;6.46;100.00
38054;BME280;23859;50.672;7.164;2023-02-12T00:07:54;102900.75;;;6.53;100.00
38054;BME280;23859;50.672;7.164;2023-02-12T00:10:20;102911.31;;;6.53;100.00
38054;BME280;23859;50.672;7.164;2023-02-12T00:12:46;102907.78;;;6.54;100.00
38054;BME280;23859;50.672;7.164;2023-02-12T00:15:12;102901.47;;;6.58;100.00
38054;BME280;23859;50.672;7.164;2023-02-12T00:17:39;102906.03;;;6.53;100.00
38054;BME280;23859;50.672;7.164;2023-02-12T00:20:05;102906.09;;;6.51;100.00
38054;BME280;23859;50.672;7.164;2023-02-12T00:22:31;102900.88;;;6.50;100.00
38054;BME280;23859;50.672;7.164;2023-02-12T00:24:57;102895.53;;;6.51;100.00
38054;BME280;23859;50.672;7.164;2023-02-12T00:27:24;102897.09;;;6.57;100.00
38054;BME280;23859;50.672;7.164;2023-02-12T00:29:50;102901.56;;;6.55;100.00
38054;BME280;23859;50.672;7.164;2023-02-12T00:32:16;102822.09;;;5.89;100.00
38054;BME280;23859;50.672;7.164;2023-02-12T00:34:46;102909.94;;;6.43;100.00
38054;BME280;23859;50.672;7.164;2023-02-12T00:37:12;102916.13;;;6.42;100.00
38054;BME280;23859;50.672;7.164;2023-02-12T00:39:39;102909.72;;;6.49;100.00
38054;BME280;23859;50.672;7.164;2023-02-12T00:42:05;102909.16;;;6.63;100.00
38054;BME280;23859;50.672;7.164;2023-02-12T00:44:32;102905.19;;;6.52;100.00
38054;BME280;23859;50.672;7.164;2023-02-12T00:46:58;102902.84;;;6.43;100.00
38054;BME280;23859;50.672;7.164;2023-02-12T00:49:27;102909.03;;;6.42;100.00
38054;BME280;23859;50.672;7.164;2023-02-12T00:51:53;102907.06;;;6.49;100.00
38054;BME280;23859;50.672;7.164;2023-02-12T00:54:19;102910.63;;;6.48;100.00
38054;BME280;23859;50.672;7.164;2023-02-12T00:56:45;102906.88;;;6.53;100.00
38054;BME280;23859;50.672;7.164;2023-02-12T00:59:12;102889.84;;;6.39;100.00
38054;BME280;23859;50.672;7.164;2023-02-12T01:01:38;102915.09;;;6.46;100.00
38054;BME280;23859;50.672;7.164;2023-02-12T01:04:04;102914.78;;;6.55;100.00
38054;BME280;23859;50.672;7.164;2023-02-12T01:06:30;102913.13;;;6.75;100.00
38054;BME280;23859;50.672;7.164;2023-02-12T01:08:56;102914.44;;;6.63;100.00
38054;BME280;23859;50.672;7.164;2023-02-12T01:11:22;102915.16;;;6.68;100.00
38054;BME280;23859;50.672;7.164;2023-02-12T01:13:48;102915.09;;;6.70;100.00
38054;BME280;23859;50.672;7.164;2023-02-12T01:16:17;102912.50;;;6.68;100.00
38054;BME280;23859;50.672;7.164;2023-02-12T01:18:45;102909.44;;;6.56;100.00
38054;BME280;23859;50.672;7.164;2023-02-12T01:21:14;102910.47;;;6.52;100.00
38054;BME280;23859;50.672;7.164;2023-02-12T01:23:41;102907.56;;;6.60;100.00
38054;BME280;23859;50.672;7.164;2023-02-12T01:26:09;102909.59;;;6.52;100.00
38054;BME280;23859;50.672;7.164;2023-02-12T01:28:39;102905.44;;;6.45;100.00
38054;BME280;23859;50.672;7.164;2023-02-12T01:31:14;102909.03;;;6.42;100.00
38054;BME280;23859;50.672;7.164;2023-02-12T01:33:41;102911.66;;;6.44;100.00
38054;BME280;23859;50.672;7.164;2023-02-12T01:36:08;102916.06;;;6.43;100.00
38054;BME280;23859;50.672;7.164;2023-02-12T01:38:34;102910.72;;;6.45;100.00
38054;BME280;23859;50.672;7.164;2023-02-12T01:41:05;102905.50;;;6.43;100.00
38054;BME280;23859;50.672;7.164;2023-02-12T01:43:34;102904.59;;;6.44;100.00
38054;BME280;23859;50.672;7.164;2023-02-12T01:46:00;102900.97;;;6.47;100.00
38054;BME280;23859;50.672;7.164;2023-02-12T01:48:30;102907.84;;;6.51;100.00
38054;BME280;23859;50.672;7.164;2023-02-12T01:50:58;102909.72;;;6.49;100.00
38054;BME280;23859;50.672;7.164;2023-02-12T01:53:34;102902.38;;;6.57;100.00
38054;BME280;23859;50.672;7.164;2023-02-12T01:56:02;102902.16;;;6.38;100.00
38054;BME280;23859;50.672;7.164;2023-02-12T01:58:33;102895.00;;;6.42;100.00
38054;BME280;23859;50.672;7.164;2023-02-12T02:01:02;102904.09;;;6.33;100.00
38054;BME280;23859;50.672;7.164;2023-02-12T02:03:29;102897.00;;;6.35;100.00
38054;BME280;23859;50.672;7.164;2023-02-12T02:06:03;102893.97;;;6.46;100.00
38054;BME280;23859;50.672;7.164;2023-02-12T02:08:32;102890.41;;;6.47;100.00
38054;BME280;23859;50.672;7.164;2023-02-12T02:10:59;102887.81;;;6.45;100.00
38054;BME280;23859;50.672;7.164;2023-02-12T02:13:25;102892.34;;;6.42;100.00
38054;BME280;23859;50.672;7.164;2023-02-12T02:16:25;102891.84;;;6.31;100.00
38054;BME280;23859;50.672;7.164;2023-02-12T02:19:00;102891.84;;;6.31;100.00
38054;BME280;23859;50.672;7.164;2023-02-12T02:21:32;102883.84;;;6.34;100.00
38054;BME280;23859;50.672;7.164;2023-02-12T02:24:25;102890.63;;;6.41;100.00
38054;BME280;23859;50.672;7.164;2023-02-12T02:27:19;102894.13;;;6.41;100.00
38054;BME280;23859;50.672;7.164;2023-02-12T02:35:40;102890.56;;;6.42;100.00
38054;BME280;23859;50.672;7.164;2023-02-12T02:38:36;102890.63;;;6.41;100.00
38054;BME280;23859;50.672;7.164;2023-02-12T02:41:18;102892.34;;;6.42;100.00
38054;BME280;23859;50.672;7.164;2023-02-12T02:43:49;102884.47;;;6.64;100.00
38054;BME280;23859;50.672;7.164;2023-02-12T02:46:54;102891.81;;;6.57;100.00
38054;BME280;23859;50.672;7.164;2023-02-12T02:49:29;102891.38;;;6.44;100.00
38054;BME280;23859;50.672;7.164;2023-02-12T02:52:05;102893.09;;;6.45;100.00
38054;BME280;23859;50.672;7.164;2023-02-12T02:54:51;102883.19;;;6.52;100.00
38054;BME280;23859;50.672;7.164;2023-02-12T02:57:27;102877.13;;;6.50;100.00
38054;BME280;23859;50.672;7.164;2023-02-12T03:00:32;102880.59;;;6.50;100.00
38054;BME280;23859;50.672;7.164;2023-02-12T03:03:00;102884.06;;;6.52;100.00
38054;BME280;23859;50.672;7.164;2023-02-12T03:05:39;102875.19;;;6.53;100.00
38054;BME280;23859;50.672;7.164;2023-02-12T03:08:11;102876.72;;;6.60;100.00
38054;BME280;23859;50.672;7.164;2023-02-12T03:10:43;102799.53;;;6.05;100.00
38054;BME280;23859;50.672;7.164;2023-02-12T03:13:36;102878.03;;;6.49;100.00
38054;BME280;23859;50.672;7.164;2023-02-12T03:16:10;102888.69;;;6.46;100.00
38054;BME280;23859;50.672;7.164;2023-02-12T03:19:13;102884.38;;;6.43;100.00
38054;BME280;23859;50.672;7.164;2023-02-12T03:21:49;102875.88;;;6.60;100.00
38054;BME280;23859;50.672;7.164;2023-02-12T03:24:55;102886.72;;;6.51;100.00
38054;BME280;23859;50.672;7.164;2023-02-12T03:27:19;102877.53;;;6.38;100.00
38054;BME280;23859;50.672;7.164;2023-02-12T03:29:46;102876.84;;;6.33;100.00
38054;BME280;23859;50.672;7.164;2023-02-12T03:37:39;102877.97;;;6.26;100.00
38054;BME280;23859;50.672;7.164;2023-02-12T03:40:16;102877.91;;;6.27;100.00
38054;BME280;23859;50.672;7.164;2023-02-12T03:45:48;102865.59;;;6.51;100.00
38054;BME280;23859;50.672;7.164;2023-02-12T03:50:57;102875.75;;;6.62;100.00
38054;BME280;23859;50.672;7.164;2023-02-12T03:53:26;102880.72;;;6.47;100.00
38054;BME280;23859;50.672;7.164;2023-02-12T03:56:32;102880.75;;;6.46;100.00
38054;BME280;23859;50.672;7.164;2023-02-12T03:58:50;102878.13;;;6.46;100.00
38054;BME280;23859;50.672;7.164;2023-02-12T04:01:16;102796.28;;;5.71;100.00
38054;BME280;23859;50.672;7.164;2023-02-12T04:03:43;102880.47;;;6.29;100.00
38054;BME280;23859;50.672;7.164;2023-02-12T04:06:23;102881.38;;;6.29;100.00
38054;BME280;23859;50.672;7.164;2023-02-12T04:08:51;102896.31;;;6.29;100.00
38054;BME280;23859;50.672;7.164;2023-02-12T04:14:19;102884.44;;;6.42;100.00
38054;BME280;23859;50.672;7.164;2023-02-12T04:16:53;102892.13;;;6.48;100.00
38054;BME280;23859;50.672;7.164;2023-02-12T04:19:43;102898.06;;;6.54;100.00
38054;BME280;23859;50.672;7.164;2023-02-12T04:27:28;102899.44;;;6.40;100.00
38054;BME280;23859;50.672;7.164;2023-02-12T04:30:10;102905.66;;;6.39;100.00
38054;BME280;23859;50.672;7.164;2023-02-12T04:33:01;102899.25;;;6.46;100.00
38054;BME280;23859;50.672;7.164;2023-02-12T04:35:41;102895.25;;;6.59;100.00
38054;BME280;23859;50.672;7.164;2023-02-12T04:38:20;102898.28;;;6.48;100.00
38054;BME280;23859;50.672;7.164;2023-02-12T04:40:48;102899.63;;;6.60;100.00
38054;BME280;23859;50.672;7.164;2023-02-12T04:43:26;102905.91;;;6.56;100.00
38054;BME280;23859;50.672;7.164;2023-02-12T04:45:52;102901.66;;;6.52;100.00
38054;BME280;23859;50.672;7.164;2023-02-12T04:48:18;102905.22;;;6.51;100.00
38054;BME280;23859;50.672;7.164;2023-02-12T04:50:45;102904.22;;;6.55;100.00
38054;BME280;23859;50.672;7.164;2023-02-12T04:53:11;102901.31;;;6.62;100.00
38054;BME280;23859;50.672;7.164;2023-02-12T04:55:37;102903.34;;;6.54;100.00
38054;BME280;23859;50.672;7.164;2023-02-12T04:58:04;102901.66;;;6.52;100.00
38054;BME280;23859;50.672;7.164;2023-02-12T05:00:30;102911.44;;;6.50;100.00
38054;BME280;23859;50.672;7.164;2023-02-12T05:02:56;102900.00;;;6.49;100.00
38054;BME280;23859;50.672;7.164;2023-02-12T05:05:23;102896.44;;;6.50;100.00
38054;BME280;23859;50.672;7.164;2023-02-12T05:07:49;102896.38;;;6.52;100.00
38054;BME280;23859;50.672;7.164;2023-02-12T05:10:15;102893.75;;;6.52;100.00
38054;BME280;23859;50.672;7.164;2023-02-12T05:12:41;102899.25;;;6.46;100.00
38054;BME280;23859;50.672;7.164;2023-02-12T05:15:08;102899.38;;;6.43;100.00
38054;BME280;23859;50.672;7.164;2023-02-12T05:17:34;102896.88;;;6.38;100.00
38054;BME280;23859;50.672;7.164;2023-02-12T05:20:00;102904.69;;;6.41;100.00
38054;BME280;23859;50.672;7.164;2023-02-12T05:22:26;102899.44;;;6.40;100.00
38054;BME280;23859;50.672;7.164;2023-02-12T05:24:52;102902.78;;;6.45;100.00
38054;BME280;23859;50.672;7.164;2023-02-12T05:27:18;102900.88;;;6.50;100.00
38054;BME280;23859;50.672;7.164;2023-02-12T05:29:44;102908.31;;;6.63;100.00
38054;BME280;23859;50.672;7.164;2023-02-12T05:32:10;102901.41;;;6.59;100.00
38054;BME280;23859;50.672;7.164;2023-02-12T05:34:37;102903.47;;;6.51;100.00
38054;BME280;23859;50.672;7.164;2023-02-12T05:37:03;102904.84;;;6.61;100.00
38054;BME280;23859;50.672;7.164;2023-02-12T05:39:29;102903.88;;;6.63;100.00
38054;BME280;23859;50.672;7.164;2023-02-12T05:41:55;102897.09;;;6.57;100.00
38054;BME280;23859;50.672;7.164;2023-02-12T05:44:21;102911.00;;;6.61;100.00
38054;BME280;23859;50.672;7.164;2023-02-12T05:46:47;102918.34;;;6.54;100.00
38054;BME280;23859;50.672;7.164;2023-02-12T05:49:13;102905.28;;;6.49;100.00
38054;BME280;23859;50.672;7.164;2023-02-12T05:51:39;102909.66;;;6.50;100.00
38054;BME280;23859;50.672;7.164;2023-02-12T05:54:07;102916.72;;;6.50;100.00
38054;BME280;23859;50.672;7.164;2023-02-12T05:56:36;102928.78;;;6.57;100.00
38054;BME280;23859;50.672;7.164;2023-02-12T05:59:07;102916.72;;;6.50;100.00
38054;BME280;23859;50.672;7.164;2023-02-12T06:01:41;102924.53;;;6.53;100.00
38054;BME280;23859;50.672;7.164;2023-02-12T06:04:14;102922.78;;;6.52;100.00
38054;BME280;23859;50.672;7.164;2023-02-12T06:06:40;102926.75;;;6.64;100.00
38054;BME280;23859;50.672;7.164;2023-02-12T06:09:11;102923.50;;;6.57;100.00
38054;BME280;23859;50.672;7.164;2023-02-12T06:11:37;102927.28;;;6.50;100.00
38054;BME280;23859;50.672;7.164;2023-02-12T06:14:05;102928.00;;;6.53;100.00
38054;BME280;23859;50.672;7.164;2023-02-12T06:16:32;102930.63;;;6.55;100.00
38054;BME280;23859;50.672;7.164;2023-02-12T06:19:02;102936.06;;;6.50;100.00
38054;BME280;23859;50.672;7.164;2023-02-12T06:21:29;102924.66;;;6.50;100.00
38054;BME280;23859;50.672;7.164;2023-02-12T06:23:56;102932.31;;;6.56;100.00
38054;BME280;23859;50.672;7.164;2023-02-12T06:26:23;102934.19;;;6.54;100.00
38054;BME280;23859;50.672;7.164;2023-02-12T06:28:49;102933.28;;;6.53;100.00
38054;BME280;23859;50.672;7.164;2023-02-12T06:31:19;102943.13;;;6.50;100.00
38054;BME280;23859;50.672;7.164;2023-02-12T06:33:45;102939.53;;;6.51;100.00
38054;BME280;23859;50.672;7.164;2023-02-12T06:36:11;102939.75;;;6.45;100.00
38054;BME280;23859;50.672;7.164;2023-02-12T06:38:37;102940.13;;;6.34;100.00
38054;BME280;23859;50.672;7.164;2023-02-12T06:41:04;102937.72;;;6.53;100.00
38054;BME280;23859;50.672;7.164;2023-02-12T06:43:30;102939.75;;;6.45;100.00
38054;BME280;23859;50.672;7.164;2023-02-12T06:46:00;102938.06;;;6.44;100.00
38054;BME280;23859;50.672;7.164;2023-02-12T06:48:27;102936.38;;;6.41;100.00
38054;BME280;23859;50.672;7.164;2023-02-12T06:50:53;102948.72;;;6.41;100.00
38054;BME280;23859;50.672;7.164;2023-02-12T06:53:19;102953.22;;;6.37;100.00
38054;BME280;23859;50.672;7.164;2023-02-12T06:55:45;102952.50;;;6.32;100.00
38054;BME280;23859;50.672;7.164;2023-02-12T06:58:11;102954.94;;;6.38;100.00
38054;BME280;23859;50.672;7.164;2023-02-12T07:00:37;102954.88;;;6.41;100.00
38054;BME280;23859;50.672;7.164;2023-02-12T07:03:03;102958.34;;;6.42;100.00
38054;BME280;23859;50.672;7.164;2023-02-12T07:05:29;102947.72;;;6.43;100.00
38054;BME280;23859;50.672;7.164;2023-02-12T07:07:55;102959.19;;;6.44;100.00
38054;BME280;23859;50.672;7.164;2023-02-12T07:10:21;102958.50;;;6.63;100.00
38054;BME280;23859;50.672;7.164;2023-02-12T07:12:47;102961.78;;;6.69;100.00
38054;BME280;23859;50.672;7.164;2023-02-12T07:15:14;102957.69;;;6.61;100.00
38054;BME280;23859;50.672;7.164;2023-02-12T07:17:40;102963.72;;;6.64;100.00
38054;BME280;23859;50.672;7.164;2023-02-12T07:20:07;102967.59;;;6.55;100.00
38054;BME280;23859;50.672;7.164;2023-02-12T07:22:35;102960.38;;;6.60;100.00
38054;BME280;23859;50.672;7.164;2023-02-12T07:25:01;102964.47;;;6.68;100.00
38054;BME280;23859;50.672;7.164;2023-02-12T07:27:27;102968.78;;;6.70;100.00
38054;BME280;23859;50.672;7.164;2023-02-12T07:29:53;102967.13;;;6.68;100.00
38054;BME280;23859;50.672;7.164;2023-02-12T07:32:19;102970.47;;;6.73;100.00
38054;BME280;23859;50.672;7.164;2023-02-12T07:34:46;102968.41;;;6.81;100.00
38054;BME280;23859;50.672;7.164;2023-02-12T07:37:12;102970.94;;;6.84;100.00
38054;BME280;23859;50.672;7.164;2023-02-12T07:39:38;102970.78;;;6.88;100.00
38054;BME280;23859;50.672;7.164;2023-02-12T07:42:04;102970.94;;;6.84;100.00
38054;BME280;23859;50.672;7.164;2023-02-12T07:44:30;102971.81;;;6.84;100.00
38054;BME280;23859;50.672;7.164;2023-02-12T07:46:59;102981.41;;;6.87;100.00
38054;BME280;23859;50.672;7.164;2023-02-12T07:49:25;102974.09;;;6.93;100.00
38054;BME280;23859;50.672;7.164;2023-02-12T07:51:51;102982.56;;;7.03;100.00
38054;BME280;23859;50.672;7.164;2023-02-12T07:54:17;102980.84;;;7.02;100.00
38054;BME280;23859;50.672;7.164;2023-02-12T07:56:44;102975.88;;;7.17;100.00
38054;BME280;23859;50.672;7.164;2023-02-12T07:59:13;102991.06;;;7.35;100.00
38054;BME280;23859;50.672;7.164;2023-02-12T08:01:46;102987.84;;;7.27;100.00
38054;BME280;23859;50.672;7.164;2023-02-12T08:04:15;102988.66;;;7.29;100.00
38054;BME280;23859;50.672;7.164;2023-02-12T08:06:46;102990.66;;;7.45;100.00
38054;BME280;23859;50.672;7.164;2023-02-12T08:09:14;102987.25;;;7.42;100.00
38054;BME280;23859;50.672;7.164;2023-02-12T08:11:43;102987.16;;;7.45;100.00
38054;BME280;23859;50.672;7.164;2023-02-12T08:14:15;102979.84;;;7.51;100.00
38054;BME280;23859;50.672;7.164;2023-02-12T08:16:43;102970.84;;;7.57;100.00
38054;BME280;23859;50.672;7.164;2023-02-12T08:19:10;102898.88;;;7.03;100.00
38054;BME280;23859;50.672;7.164;2023-02-12T08:21:36;102976.53;;;7.68;100.00
38054;BME280;23859;50.672;7.164;2023-02-12T08:24:02;102986.19;;;7.70;100.00
38054;BME280;23859;50.672;7.164;2023-02-12T08:26:29;102981.44;;;7.78;100.00
38054;BME280;23859;50.672;7.164;2023-02-12T08:29:01;102983.28;;;7.97;100.00
38054;BME280;23859;50.672;7.164;2023-02-12T08:31:32;102977.75;;;8.03;100.00
38054;BME280;23859;50.672;7.164;2023-02-12T08:33:59;102983.94;;;8.25;100.00
38054;BME280;23859;50.672;7.164;2023-02-12T08:36:27;102982.06;;;8.49;100.00
38054;BME280;23859;50.672;7.164;2023-02-12T08:38:57;102988.09;;;8.52;100.00
38054;BME280;23859;50.672;7.164;2023-02-12T08:41:26;102987.63;;;8.43;100.00
38054;BME280;23859;50.672;7.164;2023-02-12T08:43:59;102997.06;;;8.48;100.00
38054;BME280;23859;50.672;7.164;2023-02-12T08:46:27;102991.47;;;8.56;100.00
38054;BME280;23859;50.672;7.164;2023-02-12T08:48:56;102996.56;;;8.60;100.00
38054;BME280;23859;50.672;7.164;2023-02-12T08:51:25;102995.72;;;8.60;100.00
38054;BME280;23859;50.672;7.164;2023-02-12T08:53:57;102988.53;;;8.61;100.00
38054;BME280;23859;50.672;7.164;2023-02-12T08:56:25;103000.69;;;8.67;100.00
38054;BME280;23859;50.672;7.164;2023-02-12T08:58:51;102996.06;;;8.72;100.00
38054;BME280;23859;50.672;7.164;2023-02-12T09:01:22;102990.16;;;8.65;100.00
38054;BME280;23859;50.672;7.164;2023-02-12T09:03:50;102991.94;;;8.65;100.00
38054;BME280;23859;50.672;7.164;2023-02-12T09:06:17;102932.06;;;8.41;100.00
38054;BME280;23859;50.672;7.164;2023-02-12T09:08:44;102995.19;;;9.11;100.00
38054;BME280;23859;50.672;7.164;2023-02-12T09:11:16;103006.78;;;9.09;100.00
38054;BME280;23859;50.672;7.164;2023-02-12T09:13:45;103001.13;;;9.36;99.79
38054;BME280;23859;50.672;7.164;2023-02-12T09:16:11;103003.34;;;9.45;98.21
38054;BME280;23859;50.672;7.164;2023-02-12T09:18:37;103002.31;;;9.29;99.84
38054;BME280;23859;50.672;7.164;2023-02-12T09:21:22;103003.69;;;9.19;100.00
38054;BME280;23859;50.672;7.164;2023-02-12T09:23:48;102999.56;;;9.12;100.00
38054;BME280;23859;50.672;7.164;2023-02-12T09:26:17;103003.19;;;9.29;100.00
38054;BME280;23859;50.672;7.164;2023-02-12T09:28:45;103003.16;;;9.49;98.66
38054;BME280;23859;50.672;7.164;2023-02-12T09:31:14;103009.44;;;9.47;97.80
38054;BME280;23859;50.672;7.164;2023-02-12T09:33:41;103002.56;;;9.43;97.76
38054;BME280;23859;50.672;7.164;2023-02-12T09:36:10;103002.16;;;9.52;97.30
38054;BME280;23859;50.672;7.164;2023-02-12T09:38:37;103009.66;;;9.42;97.96
38054;BME280;23859;50.672;7.164;2023-02-12T09:44:08;102998.41;;;9.74;96.71
38054;BME280;23859;50.672;7.164;2023-02-12T09:51:54;103001.88;;;9.76;94.73
38054;BME280;23859;50.672;7.164;2023-02-12T09:54:38;103002.81;;;9.75;94.97
38054;BME280;23859;50.672;7.164;2023-02-12T09:57:20;102998.84;;;9.84;94.69
38054;BME280;23859;50.672;7.164;2023-02-12T10:00:21;102944.53;;;9.35;94.68
38054;BME280;23859;50.672;7.164;2023-02-12T10:02:51;103003.00;;;9.52;95.84
38054;BME280;23859;50.672;7.164;2023-02-12T10:05:48;103007.97;;;9.96;95.36
38054;BME280;23859;50.672;7.164;2023-02-12T10:08:23;103004.25;;;10.00;95.65
38054;BME280;23859;50.672;7.164;2023-02-12T10:27:13;102999.84;;;11.36;88.42
38054;BME280;23859;50.672;7.164;2023-02-12T10:29:40;103006.53;;;11.60;87.26
38054;BME280;23859;50.672;7.164;2023-02-12T10:32:21;103014.47;;;11.77;85.41
38054;BME280;23859;50.672;7.164;2023-02-12T10:34:50;103005.97;;;11.86;85.73
38054;BME280;23859;50.672;7.164;2023-02-12T10:37:20;103010.63;;;11.82;86.41
38054;BME280;23859;50.672;7.164;2023-02-12T10:39:55;103009.84;;;11.96;85.54
38054;BME280;23859;50.672;7.164;2023-02-12T10:44:57;103005.00;;;11.56;88.65
38054;BME280;23859;50.672;7.164;2023-02-12T10:47:24;103000.91;;;11.81;86.32
38054;BME280;23859;50.672;7.164;2023-02-12T10:50:01;102998.47;;;11.77;85.26
38054;BME280;23859;50.672;7.164;2023-02-12T10:52:45;102998.84;;;11.86;86.10
38054;BME280;23859;50.672;7.164;2023-02-12T10:55:33;103006.56;;;12.21;85.20
38054;BME280;23859;50.672;7.164;2023-02-12T10:58:02;102992.63;;;12.32;83.43
38054;BME280;23859;50.672;7.164;2023-02-12T11:00:33;102989.16;;;12.45;82.57
38054;BME280;23859;50.672;7.164;2023-02-12T11:05:40;102996.31;;;13.03;80.40
38054;BME280;23859;50.672;7.164;2023-02-12T11:08:09;102972.22;;;13.19;79.80
38054;BME280;23859;50.672;7.164;2023-02-12T11:10:51;102975.56;;;13.64;76.93
38054;BME280;23859;50.672;7.164;2023-02-12T11:13:27;102971.34;;;13.46;77.06
38054;BME280;23859;50.672;7.164;2023-02-12T11:15:54;102967.91;;;13.02;78.67
38054;BME280;23859;50.672;7.164;2023-02-12T11:18:24;102971.50;;;12.72;79.96
38054;BME280;23859;50.672;7.164;2023-02-12T11:21:00;102969.50;;;12.91;79.30
38054;BME280;23859;50.672;7.164;2023-02-12T11:23:33;102963.38;;;12.60;80.76
38054;BME280;23859;50.672;7.164;2023-02-12T11:28:57;102958.59;;;11.91;85.49
38054;BME280;23859;50.672;7.164;2023-02-12T11:31:31;102959.09;;;11.66;85.50
38054;BME280;23859;50.672;7.164;2023-02-12T11:34:16;102957.75;;;11.90;85.21
38054;BME280;23859;50.672;7.164;2023-02-12T11:36:47;102958.63;;;11.75;85.55
38054;BME280;23859;50.672;7.164;2023-02-12T11:39:27;102956.28;;;11.37;88.05
38054;BME280;23859;50.672;7.164;2023-02-12T11:41:56;102853.75;;;10.99;87.62
38054;BME280;23859;50.672;7.164;2023-02-12T11:44:27;102954.47;;;11.70;87.70
38054;BME280;23859;50.672;7.164;2023-02-12T11:47:01;102945.03;;;11.95;86.05
38054;BME280;23859;50.672;7.164;2023-02-12T11:49:35;102947.19;;;12.33;84.46
38054;BME280;23859;50.672;7.164;2023-02-12T11:52:04;102940.06;;;12.63;84.02
38054;BME280;23859;50.672;7.164;2023-02-12T11:54:39;102941.66;;;12.52;84.01
38054;BME280;23859;50.672;7.164;2023-02-12T11:57:09;102925.00;;;12.91;81.80
38054;BME280;23859;50.672;7.164;2023-02-12T11:59:41;102935.97;;;13.01;80.54
38054;BME280;23859;50.672;7.164;2023-02-12T12:04:40;102924.31;;;12.88;81.30
38054;BME280;23859;50.672;7.164;2023-02-12T12:07:30;102917.66;;;12.95;82.10
38054;BME280;23859;50.672;7.164;2023-02-12T12:12:37;102913.84;;;12.99;80.33
38054;BME280;23859;50.672;7.164;2023-02-12T12:18:25;102834.56;;;11.71;83.45
38054;BME280;23859;50.672;7.164;2023-02-12T12:24:13;102904.28;;;11.93;83.64
38054;BME280;23859;50.672;7.164;2023-02-12T12:26:46;102901.81;;;12.19;82.97
38054;BME280;23859;50.672;7.164;2023-02-12T12:29:21;102896.41;;;11.76;86.12
38054;BME280;23859;50.672;7.164;2023-02-12T12:31:58;102910.22;;;11.83;86.17
38054;BME280;23859;50.672;7.164;2023-02-12T12:34:27;102905.00;;;11.81;86.39
38054;BME280;23859;50.672;7.164;2023-02-12T12:37:17;102905.69;;;11.85;85.81
38054;BME280;23859;50.672;7.164;2023-02-12T12:40:07;102895.94;;;11.99;85.26
38054;BME280;23859;50.672;7.164;2023-02-12T12:53:54;102889.28;;;12.21;84.17
38054;BME280;23859;50.672;7.164;2023-02-12T12:59:16;102890.22;;;12.50;82.91
38054;BME280;23859;50.672;7.164;2023-02-12T13:04:49;102882.34;;;12.33;84.71
38054;BME280;23859;50.672;7.164;2023-02-12T13:09:53;102872.97;;;12.55;82.54
38054;BME280;23859;50.672;7.164;2023-02-12T13:12:45;102867.72;;;12.97;81.45
38054;BME280;23859;50.672;7.164;2023-02-12T13:15:41;102871.84;;;12.59;81.81
38054;BME280;23859;50.672;7.164;2023-02-12T13:18:26;102869.66;;;12.65;81.65
38054;BME280;23859;50.672;7.164;2023-02-12T13:23:53;102858.03;;;12.80;79.96
38054;BME280;23859;50.672;7.164;2023-02-12T13:29:25;102864.94;;;12.41;82.96
38054;BME280;23859;50.672;7.164;2023-02-12T13:31:58;102860.44;;;12.42;82.93
38054;BME280;23859;50.672;7.164;2023-02-12T13:34:28;102849.81;;;11.83;84.97
38054;BME280;23859;50.672;7.164;2023-02-12T13:36:58;102841.09;;;11.95;84.29
38054;BME280;23859;50.672;7.164;2023-02-12T13:39:29;102857.66;;;12.15;83.43
38054;BME280;23859;50.672;7.164;2023-02-12T13:47:50;102843.91;;;12.07;83.95
38054;BME280;23859;50.672;7.164;2023-02-12T13:50:39;102840.75;;;12.01;84.03
38054;BME280;23859;50.672;7.164;2023-02-12T14:01:03;102840.50;;;11.90;85.18
38054;BME280;23859;50.672;7.164;2023-02-12T14:03:30;102830.53;;;11.94;84.36
38054;BME280;23859;50.672;7.164;2023-02-12T14:08:40;102831.09;;;11.69;86.29
38054;BME280;23859;50.672;7.164;2023-02-12T14:11:27;102829.47;;;11.51;86.83
38054;BME280;23859;50.672;7.164;2023-02-12T14:13:57;102832.31;;;11.64;86.31
38054;BME280;23859;50.672;7.164;2023-02-12T14:21:59;102824.84;;;11.55;87.29
38054;BME280;23859;50.672;7.164;2023-02-12T14:27:21;102819.66;;;11.83;85.82
38054;BME280;23859;50.672;7.164;2023-02-12T14:35:47;102822.13;;;11.86;85.72
38054;BME280;23859;50.672;7.164;2023-02-12T14:40:42;102820.59;;;11.82;85.91
38054;BME280;23859;50.672;7.164;2023-02-12T14:43:29;102827.88;;;11.94;86.10
38054;BME280;23859;50.672;7.164;2023-02-12T14:48:59;102830.75;;;12.04;85.53
38054;BME280;23859;50.672;7.164;2023-02-12T14:51:52;102826.75;;;11.97;85.91
38054;BME280;23859;50.672;7.164;2023-02-12T15:00:00;102832.13;;;11.82;86.63
38054;BME280;23859;50.672;7.164;2023-02-12T15:02:32;102831.00;;;11.86;86.61
38054;BME280;23859;50.672;7.164;2023-02-12T15:05:03;102828.44;;;11.85;86.81
38054;BME280;23859;50.672;7.164;2023-02-12T15:07:49;102833.56;;;11.72;88.23
38054;BME280;23859;50.672;7.164;2023-02-12T15:10:22;102825.00;;;11.67;87.92
38054;BME280;23859;50.672;7.164;2023-02-12T15:18:37;102816.47;;;11.45;88.00
38054;BME280;23859;50.672;7.164;2023-02-12T15:21:22;102820.47;;;11.38;88.54
38054;BME280;23859;50.672;7.164;2023-02-12T15:24:04;102816.50;;;11.30;89.59
38054;BME280;23859;50.672;7.164;2023-02-12T15:26:34;102817.78;;;11.23;89.02
38054;BME280;23859;50.672;7.164;2023-02-12T15:29:02;102813.06;;;11.28;88.80
38054;BME280;23859;50.672;7.164;2023-02-12T15:31:31;102814.59;;;11.32;88.45
38054;BME280;23859;50.672;7.164;2023-02-12T15:33:59;102818.28;;;11.29;89.17